createdAt,value
2018-12-29T00:01:35.348Z,6.61
2018-12-29T00:04:06.005Z,6.55
2018-12-29T00:06:36.539Z,6.61
2018-12-29T00:09:08.401Z,6.53
2018-12-29T00:11:38.994Z,6.52
2018-12-29T00:14:09.753Z,6.63
2018-12-29T00:16:40.277Z,6.60
2018-12-29T00:19:10.882Z,6.60
2018-12-29T00:21:44.345Z,6.56
2018-12-29T00:24:14.985Z,6.55
2018-12-29T00:26:45.656Z,6.58
2018-12-29T00:29:16.200Z,6.56
2018-12-29T00:31:46.803Z,6.59
2018-12-29T00:34:17.469Z,6.56
2018-12-29T00:36:47.980Z,6.50
2018-12-29T00:39:18.477Z,6.53
2018-12-29T00:41:48.996Z,6.44
2018-12-29T00:44:19.498Z,6.44
2018-12-29T00:46:50.051Z,6.54
2018-12-29T00:49:20.581Z,6.43
2018-12-29T00:51:51.096Z,6.48
2018-12-29T00:54:21.585Z,6.47
2018-12-29T00:56:52.367Z,6.52
2018-12-29T00:59:22.836Z,6.54
2018-12-29T01:01:53.308Z,6.48
2018-12-29T01:04:23.851Z,6.50
2018-12-29T01:06:54.455Z,6.49
2018-12-29T01:09:24.965Z,6.46
2018-12-29T01:11:55.560Z,6.48
2018-12-29T01:14:26.031Z,6.56
2018-12-29T01:16:56.544Z,6.47
2018-12-29T01:19:27.124Z,6.44
2018-12-29T01:21:57.655Z,6.54
2018-12-29T01:24:28.171Z,6.48
2018-12-29T01:26:58.762Z,6.47
2018-12-29T01:29:29.283Z,6.50
2018-12-29T01:32:01.285Z,6.50
2018-12-29T01:34:32.762Z,6.49
2018-12-29T01:37:03.338Z,6.49
2018-12-29T01:39:33.785Z,6.49
2018-12-29T01:42:04.335Z,6.51
2018-12-29T01:44:34.818Z,6.50
2018-12-29T01:47:36.303Z,6.50
2018-12-29T01:50:07.145Z,6.55
2018-12-29T01:52:37.710Z,6.61
2018-12-29T01:55:08.200Z,6.57
2018-12-29T01:57:38.735Z,6.54
2018-12-29T02:00:09.445Z,6.63
2018-12-29T02:02:39.927Z,6.58
2018-12-29T02:05:14.440Z,6.59
2018-12-29T02:07:44.967Z,6.60
2018-12-29T02:10:15.596Z,6.54
2018-12-29T02:12:46.171Z,6.61
2018-12-29T02:15:16.727Z,6.56
2018-12-29T02:17:47.237Z,6.70
2018-12-29T02:20:17.819Z,6.63
2018-12-29T02:22:48.292Z,6.65
2018-12-29T02:25:18.877Z,6.64
2018-12-29T02:27:49.390Z,6.61
2018-12-29T02:30:19.912Z,6.72
2018-12-29T02:32:50.454Z,6.66
2018-12-29T02:35:20.964Z,6.61
2018-12-29T02:37:51.562Z,6.60
2018-12-29T02:40:22.068Z,6.67
2018-12-29T02:42:52.585Z,6.62
2018-12-29T02:45:23.122Z,6.66
2018-12-29T02:47:53.620Z,6.74
2018-12-29T02:50:24.122Z,6.70
2018-12-29T02:52:54.612Z,6.74
2018-12-29T02:55:25.120Z,6.73
2018-12-29T02:57:55.644Z,6.75
2018-12-29T03:00:26.161Z,6.75
2018-12-29T03:02:56.803Z,6.76
2018-12-29T03:05:27.313Z,6.84
2018-12-29T03:07:57.826Z,6.78
2018-12-29T03:10:28.341Z,6.82
2018-12-29T03:12:58.860Z,6.76
2018-12-29T03:15:29.378Z,6.79
2018-12-29T03:17:59.898Z,6.78
2018-12-29T03:20:30.437Z,6.79
2018-12-29T03:23:01.009Z,6.80
2018-12-29T03:25:31.535Z,6.79
2018-12-29T03:28:02.024Z,6.79
2018-12-29T03:30:32.550Z,6.75
2018-12-29T03:33:03.049Z,6.74
2018-12-29T03:35:33.573Z,6.77
2018-12-29T03:38:04.174Z,6.85
2018-12-29T03:40:34.795Z,6.86
2018-12-29T03:43:05.326Z,6.81
2018-12-29T03:45:35.835Z,6.85
2018-12-29T03:48:06.331Z,6.83
2018-12-29T03:50:36.866Z,6.79
2018-12-29T03:53:07.462Z,6.86
2018-12-29T03:55:39.491Z,6.88
2018-12-29T03:58:09.991Z,6.83
2018-12-29T04:00:40.519Z,6.87
2018-12-29T04:03:11.082Z,6.83
2018-12-29T04:05:41.593Z,6.80
2018-12-29T04:08:12.068Z,6.80
2018-12-29T04:10:42.676Z,6.78
2018-12-29T04:13:13.158Z,6.85
2018-12-29T04:15:43.578Z,6.87
2018-12-29T04:18:14.057Z,6.87
2018-12-29T04:20:44.466Z,6.96
2018-12-29T04:23:15.000Z,6.90
2018-12-29T04:25:45.556Z,6.94
2018-12-29T04:28:16.084Z,6.94
2018-12-29T04:30:46.575Z,7.06
2018-12-29T04:33:17.138Z,7.03
2018-12-29T04:35:47.642Z,7.07
2018-12-29T04:38:18.203Z,7.06
2018-12-29T04:40:48.740Z,7.04
2018-12-29T04:43:19.222Z,7.09
2018-12-29T04:45:49.728Z,7.11
2018-12-29T04:48:20.296Z,7.11
2018-12-29T04:50:50.802Z,7.14
2018-12-29T04:53:21.271Z,7.18
2018-12-29T04:55:51.854Z,7.17
2018-12-29T04:58:22.371Z,7.21
2018-12-29T05:00:52.948Z,7.22
2018-12-29T05:03:23.506Z,7.19
2018-12-29T05:05:54.058Z,7.24
2018-12-29T05:08:24.577Z,7.22
2018-12-29T05:10:55.053Z,7.24
2018-12-29T05:13:25.562Z,7.23
2018-12-29T05:15:56.066Z,7.16
2018-12-29T05:18:26.651Z,7.22
2018-12-29T05:20:57.152Z,7.26
2018-12-29T05:23:27.656Z,7.25
2018-12-29T05:25:58.218Z,7.18
2018-12-29T05:28:28.713Z,7.24
2018-12-29T05:30:59.190Z,7.20
2018-12-29T05:33:29.825Z,7.24
2018-12-29T05:36:00.326Z,7.28
2018-12-29T05:38:30.834Z,7.23
2018-12-29T05:41:01.352Z,7.27
2018-12-29T05:43:31.862Z,7.23
2018-12-29T05:46:02.453Z,7.29
2018-12-29T05:48:33.012Z,7.24
2018-12-29T05:51:03.519Z,7.28
2018-12-29T05:53:34.032Z,7.27
2018-12-29T05:56:04.580Z,7.31
2018-12-29T05:58:35.047Z,7.32
2018-12-29T06:01:05.551Z,7.35
2018-12-29T06:03:36.069Z,7.39
2018-12-29T06:06:06.578Z,7.33
2018-12-29T06:08:37.080Z,7.35
2018-12-29T06:11:07.616Z,7.29
2018-12-29T06:13:38.617Z,7.28
2018-12-29T06:16:09.102Z,7.26
2018-12-29T06:18:39.629Z,7.30
2018-12-29T06:21:10.128Z,7.30
2018-12-29T06:23:40.674Z,7.31
2018-12-29T06:26:11.191Z,7.32
2018-12-29T06:28:41.612Z,7.38
2018-12-29T06:31:12.119Z,7.34
2018-12-29T06:33:42.643Z,7.32
2018-12-29T23:16:02.262Z,7.98
2018-12-29T23:18:32.884Z,7.93
2018-12-29T23:21:03.602Z,7.98
2018-12-29T23:23:36.370Z,7.96
2018-12-29T23:26:07.006Z,7.93
2018-12-29T23:28:37.615Z,7.96
2018-12-29T23:31:09.782Z,7.96
2018-12-29T23:33:40.393Z,7.96
2018-12-29T23:36:11.220Z,7.96
2018-12-29T23:38:41.879Z,7.97
2018-12-29T23:41:12.415Z,7.96
2018-12-29T23:43:43.227Z,8.02
2018-12-29T23:46:13.832Z,8.02
2018-12-29T23:48:44.425Z,8.02
2018-12-29T23:51:15.014Z,8.04
2018-12-29T23:53:45.641Z,8.06
2018-12-29T23:56:16.662Z,8.05
2018-12-29T23:58:47.565Z,8.09
